Private Wetterstation Sandau
Wetterdaten: Samstag, 28.04.2012
Datum Zeit Temp. A. Feuchte A. Luftdruck Regen Wind Richtung Richtung Taupunkt Windchill
28.04.2012 00:01 14,6 C 65 % 1019,8 hPa 0,0 l/m 0,0 km/h (0 Bft) NW 315 8,1 C 14,6 C
28.04.2012 00:06 14,6 C 65 % 1019,8 hPa 0,0 l/m 0,0 km/h (0 Bft) NW 315 8,1 C 14,6 C
28.04.2012 00:11 14,4 C 65 % 1019,8 hPa 0,0 l/m 2,5 km/h (1 Bft) N-NO 22 7,9 C 14,4 C
28.04.2012 00:16 14,3 C 65 % 1020,0 hPa 0,0 l/m 3,2 km/h (1 Bft) N-NO 22 7,8 C 14,3 C
28.04.2012 00:21 14,2 C 65 % 1020,0 hPa 0,0 l/m 0,0 km/h (0 Bft) N-NW 337 7,7 C 14,2 C
28.04.2012 00:26 14,1 C 65 % 1020,0 hPa 0,0 l/m 0,0 km/h (0 Bft) N-NW 337 7,6 C 14,1 C
28.04.2012 00:31 14,1 C 65 % 1020,2 hPa 0,0 l/m 0,0 km/h (0 Bft) N-NW 337 7,6 C 14,1 C
28.04.2012 00:36 14,2 C 65 % 1020,4 hPa 0,0 l/m 0,0 km/h (0 Bft) NW 315 7,7 C 14,2 C
28.04.2012 00:41 14,1 C 66 % 1020,3 hPa 0,0 l/m 1,4 km/h (1 Bft) N 360 7,8 C 14,1 C
28.04.2012 00:46 14,1 C 66 % 1020,1 hPa 0,0 l/m 3,2 km/h (1 Bft) NO 45 7,8 C 14,1 C
28.04.2012 00:51 13,9 C 66 % 1019,9 hPa 0,0 l/m 6,1 km/h (2 Bft) N-NO 22 7,7 C 13,9 C
28.04.2012 00:56 13,9 C 66 % 1019,8 hPa 0,0 l/m 5,0 km/h (1 Bft) N-NO 22 7,7 C 13,9 C
28.04.2012 01:01 13,9 C 66 % 1019,6 hPa 0,0 l/m 7,2 km/h (2 Bft) N-NO 22 7,7 C 13,9 C
28.04.2012 01:06 14,1 C 66 % 1019,9 hPa 0,0 l/m 2,5 km/h (1 Bft) NO 45 7,8 C 14,1 C
28.04.2012 01:11 14,2 C 65 % 1020,0 hPa 0,0 l/m 4,7 km/h (1 Bft) NO 45 7,7 C 14,2 C
28.04.2012 01:16 14,3 C 65 % 1019,6 hPa 0,0 l/m 3,6 km/h (1 Bft) O 90 7,8 C 14,3 C
28.04.2012 01:21 14,3 C 66 % 1019,7 hPa 0,0 l/m 0,0 km/h (0 Bft) O-NO 67 8,0 C 14,3 C
28.04.2012 01:26 14,3 C 66 % 1019,9 hPa 0,0 l/m 2,5 km/h (1 Bft) O-NO 67 8,0 C 14,3 C
28.04.2012 01:31 14,3 C 67 % 1020,0 hPa 0,0 l/m 0,0 km/h (0 Bft) O-SO 112 8,3 C 14,3 C
28.04.2012 01:36 14,2 C 68 % 1019,5 hPa 0,0 l/m 4,7 km/h (1 Bft) NO 45 8,4 C 14,2 C
28.04.2012 01:41 14,1 C 68 % 1019,5 hPa 0,0 l/m 6,1 km/h (2 Bft) O-NO 67 8,3 C 14,1 C
28.04.2012 01:46 13,9 C 68 % 1019,4 hPa 0,0 l/m 2,9 km/h (1 Bft) O 90 8,1 C 13,9 C
28.04.2012 01:51 13,9 C 68 % 1019,2 hPa 0,0 l/m 0,0 km/h (0 Bft) NO 45 8,1 C 13,9 C
28.04.2012 01:56 13,9 C 69 % 1019,4 hPa 0,0 l/m 0,0 km/h (0 Bft) N-NO 22 8,3 C 13,9 C
28.04.2012 02:01 13,9 C 69 % 1019,3 hPa 0,0 l/m 0,0 km/h (0 Bft) O-NO 67 8,3 C 13,9 C
28.04.2012 02:06 13,9 C 70 % 1019,3 hPa 0,0 l/m 1,8 km/h (1 Bft) O-NO 67 8,5 C 13,9 C
28.04.2012 02:11 13,9 C 69 % 1019,4 hPa 0,0 l/m 0,0 km/h (0 Bft) O 90 8,3 C 13,9 C
28.04.2012 02:16 13,9 C 70 % 1019,5 hPa 0,0 l/m 0,0 km/h (0 Bft) O-NO 67 8,5 C 13,9 C
28.04.2012 02:21 13,9 C 70 % 1019,6 hPa 0,0 l/m 2,5 km/h (1 Bft) O-NO 67 8,5 C 13,9 C
28.04.2012 02:26 13,8 C 70 % 1019,5 hPa 0,0 l/m 4,0 km/h (1 Bft) O-SO 112 8,4 C 13,8 C
28.04.2012 02:31 13,8 C 70 % 1019,4 hPa 0,0 l/m 0,0 km/h (0 Bft) O-NO 67 8,4 C 13,8 C
28.04.2012 02:36 13,8 C 70 % 1019,3 hPa 0,0 l/m 2,9 km/h (1 Bft) O-NO 67 8,4 C 13,8 C
28.04.2012 02:41 13,7 C 70 % 1019,5 hPa 0,0 l/m 2,5 km/h (1 Bft) O-NO 67 8,3 C 13,7 C
28.04.2012 02:46 13,6 C 70 % 1019,4 hPa 0,0 l/m 0,0 km/h (0 Bft) NO 45 8,2 C 13,6 C
28.04.2012 02:51 13,6 C 71 % 1019,3 hPa 0,0 l/m 0,0 km/h (0 Bft) NO 45 8,4 C 13,6 C
28.04.2012 02:56 13,6 C 71 % 1019,2 hPa 0,0 l/m 0,0 km/h (0 Bft) O-NO 67 8,4 C 13,6 C
28.04.2012 03:01 13,6 C 70 % 1019,4 hPa 0,0 l/m 0,0 km/h (0 Bft) N 360 8,2 C 13,6 C
28.04.2012 03:06 13,5 C 71 % 1019,4 hPa 0,0 l/m 0,0 km/h (0 Bft) NO 45 8,3 C 13,5 C
28.04.2012 03:11 13,4 C 72 % 1019,5 hPa 0,0 l/m 2,9 km/h (1 Bft) W-NW 292 8,5 C 13,4 C
28.04.2012 03:16 13,4 C 72 % 1019,4 hPa 0,0 l/m 2,5 km/h (1 Bft) NW 315 8,5 C 13,4 C
28.04.2012 03:21 13,3 C 73 % 1019,6 hPa 0,0 l/m 1,4 km/h (1 Bft) NW 315 8,6 C 13,3 C
28.04.2012 03:26 13,2 C 73 % 1019,5 hPa 0,0 l/m 2,2 km/h (1 Bft) O-NO 67 8,5 C 13,2 C
28.04.2012 03:31 13,1 C 73 % 1019,6 hPa 0,0 l/m 2,2 km/h (1 Bft) W 270 8,4 C 13,1 C
28.04.2012 03:36 13,2 C 73 % 1019,6 hPa 0,0 l/m 2,9 km/h (1 Bft) NW 315 8,5 C 13,2 C
28.04.2012 03:41 13,2 C 73 % 1019,6 hPa 0,0 l/m 3,2 km/h (1 Bft) O-NO 67 8,5 C 13,2 C
28.04.2012 03:46 13,0 C 74 % 1019,5 hPa 0,0 l/m 0,0 km/h (0 Bft) NO 45 8,5 C 13,0 C
28.04.2012 03:51 12,9 C 74 % 1019,3 hPa 0,0 l/m 1,1 km/h (1 Bft) N-NO 22 8,4 C 12,9 C
28.04.2012 03:56 13,0 C 74 % 1019,3 hPa 0,0 l/m 0,0 km/h (0 Bft) N-NO 22 8,5 C 13,0 C
28.04.2012 04:01 13,0 C 74 % 1019,1 hPa 0,0 l/m 2,2 km/h (1 Bft) NO 45 8,5 C 13,0 C
28.04.2012 04:06 13,0 C 73 % 1019,1 hPa 0,0 l/m 3,2 km/h (1 Bft) N-NO 22 8,3 C 13,0 C
28.04.2012 04:11 12,9 C 73 % 1019,2 hPa 0,0 l/m 3,6 km/h (1 Bft) NO 45 8,2 C 12,9 C
28.04.2012 04:16 12,9 C 73 % 1019,0 hPa 0,0 l/m 4,3 km/h (1 Bft) NO 45 8,2 C 12,9 C
28.04.2012 04:21 12,9 C 73 % 1019,1 hPa 0,0 l/m 3,6 km/h (1 Bft) N-NO 22 8,2 C 12,9 C
28.04.2012 04:26 12,9 C 73 % 1018,9 hPa 0,0 l/m 3,6 km/h (1 Bft) N-NO 22 8,2 C 12,9 C
28.04.2012 04:31 13,0 C 72 % 1019,1 hPa 0,0 l/m 2,9 km/h (1 Bft) N-NO 22 8,1 C 13,0 C
28.04.2012 04:36 13,0 C 72 % 1019,0 hPa 0,0 l/m 1,8 km/h (1 Bft) NO 45 8,1 C 13,0 C
28.04.2012 04:41 13,1 C 72 % 1019,2 hPa 0,0 l/m 2,5 km/h (1 Bft) O-NO 67 8,2 C 13,1 C
28.04.2012 04:46 13,1 C 72 % 1019,3 hPa 0,0 l/m 2,5 km/h (1 Bft) NO 45 8,2 C 13,1 C
28.04.2012 04:51 13,1 C 72 % 1019,4 hPa 0,0 l/m 3,6 km/h (1 Bft) NO 45 8,2 C 13,1 C
28.04.2012 04:56 13,2 C 71 % 1019,3 hPa 0,0 l/m 7,2 km/h (2 Bft) N-NO 22 8,1 C 13,2 C
28.04.2012 05:01 13,2 C 71 % 1019,2 hPa 0,0 l/m 2,2 km/h (1 Bft) O 90 8,1 C 13,2 C
28.04.2012 05:06 13,2 C 71 % 1019,2 hPa 0,0 l/m 2,5 km/h (1 Bft) O 90 8,1 C 13,2 C
28.04.2012 05:11 13,2 C 71 % 1019,3 hPa 0,0 l/m 2,2 km/h (1 Bft) O-NO 67 8,1 C 13,2 C
28.04.2012 05:16 13,2 C 71 % 1019,5 hPa 0,0 l/m 1,8 km/h (1 Bft) O-NO 67 8,1 C 13,2 C
28.04.2012 05:21 13,2 C 71 % 1019,2 hPa 0,0 l/m 2,5 km/h (1 Bft) N-NO 22 8,1 C 13,2 C
28.04.2012 05:26 13,2 C 71 % 1019,5 hPa 0,0 l/m 0,0 km/h (0 Bft) N 360 8,1 C 13,2 C
28.04.2012 05:31 13,3 C 71 % 1019,7 hPa 0,0 l/m 1,8 km/h (1 Bft) N-NO 22 8,2 C 13,3 C
28.04.2012 05:36 13,2 C 71 % 1019,3 hPa 0,0 l/m 5,0 km/h (1 Bft) N-NO 22 8,1 C 13,2 C
28.04.2012 05:41 13,1 C 71 % 1019,6 hPa 0,0 l/m 2,2 km/h (1 Bft) N-NO 22 8,0 C 13,1 C
28.04.2012 05:46 13,1 C 71 % 1019,6 hPa 0,0 l/m 6,8 km/h (2 Bft) N-NO 22 8,0 C 13,1 C
28.04.2012 05:51 13,1 C 71 % 1019,4 hPa 0,0 l/m 6,1 km/h (2 Bft) NO 45 8,0 C 13,1 C
28.04.2012 05:56 13,1 C 71 % 1019,1 hPa 0,0 l/m 2,5 km/h (1 Bft) N-NO 22 8,0 C 13,1 C
28.04.2012 06:01 13,2 C 71 % 1019,0 hPa 0,0 l/m 3,6 km/h (1 Bft) O 90 8,1 C 13,2 C
28.04.2012 06:06 13,2 C 70 % 1018,9 hPa 0,0 l/m 7,2 km/h (2 Bft) O-NO 67 7,9 C 13,2 C
28.04.2012 06:11 13,2 C 70 % 1019,1 hPa 0,0 l/m 2,5 km/h (1 Bft) NO 45 7,9 C 13,2 C
28.04.2012 06:16 13,2 C 70 % 1018,8 hPa 0,0 l/m 5,8 km/h (2 Bft) NO 45 7,9 C 13,2 C
28.04.2012 06:21 13,2 C 70 % 1018,8 hPa 0,0 l/m 4,3 km/h (1 Bft) O-NO 67 7,9 C 13,2 C
28.04.2012 06:26 13,2 C 70 % 1019,2 hPa 0,0 l/m 7,6 km/h (2 Bft) O-NO 67 7,9 C 13,2 C
28.04.2012 06:31 13,2 C 70 % 1019,0 hPa 0,0 l/m 5,0 km/h (1 Bft) NO 45 7,9 C 13,2 C
28.04.2012 06:36 13,2 C 71 % 1019,0 hPa 0,0 l/m 6,5 km/h (2 Bft) O 90 8,1 C 13,2 C
28.04.2012 06:41 13,1 C 71 % 1018,7 hPa 0,0 l/m 7,6 km/h (2 Bft) NO 45 8,0 C 13,1 C
28.04.2012 06:46 13,2 C 71 % 1019,2 hPa 0,0 l/m 4,7 km/h (1 Bft) O 90 8,1 C 13,2 C
28.04.2012 06:51 13,3 C 70 % 1019,1 hPa 0,0 l/m 0,0 km/h (0 Bft) O 90 7,9 C 13,3 C
28.04.2012 06:56 13,3 C 70 % 1019,2 hPa 0,0 l/m 2,5 km/h (1 Bft) O 90 7,9 C 13,3 C
28.04.2012 07:01 13,4 C 70 % 1018,9 hPa 0,0 l/m 9,4 km/h (2 Bft) O-SO 112 8,0 C 13,4 C
28.04.2012 07:06 13,5 C 70 % 1018,9 hPa 0,0 l/m 9,4 km/h (2 Bft) O 90 8,1 C 13,5 C
28.04.2012 07:11 13,6 C 69 % 1018,9 hPa 0,0 l/m 4,0 km/h (1 Bft) O 90 8,0 C 13,6 C
28.04.2012 07:16 13,8 C 69 % 1019,3 hPa 0,0 l/m 5,0 km/h (1 Bft) O-SO 112 8,2 C 13,8 C
28.04.2012 07:21 13,9 C 69 % 1019,3 hPa 0,0 l/m 8,3 km/h (2 Bft) O-NO 67 8,3 C 13,9 C
28.04.2012 07:26 13,9 C 69 % 1019,2 hPa 0,0 l/m 8,6 km/h (2 Bft) O 90 8,3 C 13,9 C
28.04.2012 07:31 13,9 C 68 % 1019,3 hPa 0,0 l/m 9,4 km/h (2 Bft) O 90 8,1 C 13,9 C
28.04.2012 07:36 13,9 C 68 % 1019,2 hPa 0,0 l/m 10,4 km/h (2 Bft) O-SO 112 8,1 C 13,9 C
28.04.2012 07:41 14,1 C 68 % 1019,0 hPa 0,0 l/m 9,0 km/h (2 Bft) O-NO 67 8,3 C 14,1 C
28.04.2012 07:46 14,1 C 68 % 1018,9 hPa 0,0 l/m 6,8 km/h (2 Bft) O-NO 67 8,3 C 14,1 C
28.04.2012 07:51 14,2 C 68 % 1018,8 hPa 0,0 l/m 17,3 km/h (3 Bft) O 90 8,4 C 14,2 C
28.04.2012 07:56 14,3 C 68 % 1019,1 hPa 0,0 l/m 13,3 km/h (3 Bft) O 90 8,5 C 14,3 C
28.04.2012 08:01 14,3 C 67 % 1019,1 hPa 0,0 l/m 5,8 km/h (2 Bft) O-SO 112 8,3 C 14,3 C
28.04.2012 08:06 14,4 C 67 % 1019,1 hPa 0,0 l/m 5,0 km/h (1 Bft) O-SO 112 8,4 C 14,4 C
28.04.2012 08:11 14,5 C 67 % 1019,2 hPa 0,0 l/m 6,5 km/h (2 Bft) O-NO 67 8,4 C 14,5 C
28.04.2012 08:16 14,6 C 67 % 1019,0 hPa 0,0 l/m 4,7 km/h (1 Bft) O-NO 67 8,5 C 14,6 C
28.04.2012 08:21 14,7 C 67 % 1018,9 hPa 0,0 l/m 6,1 km/h (2 Bft) O 90 8,6 C 14,7 C
28.04.2012 08:26 14,8 C 67 % 1018,8 hPa 0,0 l/m 12,2 km/h (2 Bft) O 90 8,7 C 14,8 C
28.04.2012 08:31 14,9 C 67 % 1018,9 hPa 0,0 l/m 2,5 km/h (1 Bft) O 90 8,8 C 14,9 C
28.04.2012 08:36 14,9 C 67 % 1018,8 hPa 0,0 l/m 2,5 km/h (1 Bft) O 90 8,8 C 14,9 C
28.04.2012 08:41 15,1 C 67 % 1018,7 hPa 0,0 l/m 11,5 km/h (2 Bft) O 90 9,0 C 15,1 C
28.04.2012 08:46 15,2 C 67 % 1018,6 hPa 0,0 l/m 2,5 km/h (1 Bft) O-NO 67 9,1 C 15,2 C
28.04.2012 08:51 15,2 C 66 % 1018,6 hPa 0,0 l/m 3,6 km/h (1 Bft) O-SO 112 8,9 C 15,2 C
28.04.2012 08:56 15,3 C 66 % 1018,6 hPa 0,0 l/m 4,3 km/h (1 Bft) O-SO 112 9,0 C 15,3 C
28.04.2012 09:01 15,3 C 66 % 1018,6 hPa 0,0 l/m 2,9 km/h (1 Bft) O-SO 112 9,0 C 15,3 C
28.04.2012 09:06 15,3 C 65 % 1018,7 hPa 0,0 l/m 5,4 km/h (1 Bft) O-NO 67 8,8 C 15,3 C
28.04.2012 09:11 15,6 C 66 % 1018,4 hPa 0,0 l/m 7,9 km/h (2 Bft) O-NO 67 9,3 C 15,6 C
28.04.2012 09:16 15,8 C 65 % 1018,2 hPa 0,0 l/m 5,4 km/h (1 Bft) O-NO 67 9,2 C 15,8 C
28.04.2012 09:21 15,9 C 65 % 1018,1 hPa 0,0 l/m 9,0 km/h (2 Bft) O-NO 67 9,3 C 15,9 C
28.04.2012 09:26 16,2 C 64 % 1018,1 hPa 0,0 l/m 6,1 km/h (2 Bft) O 90 9,4 C 16,2 C
28.04.2012 09:31 16,4 C 64 % 1018,1 hPa 0,0 l/m 6,5 km/h (2 Bft) O 90 9,6 C 16,4 C
28.04.2012 09:36 16,6 C 63 % 1018,0 hPa 0,0 l/m 5,0 km/h (1 Bft) O 90 9,5 C 16,6 C
28.04.2012 09:41 16,9 C 62 % 1018,1 hPa 0,0 l/m 8,3 km/h (2 Bft) O-SO 112 9,6 C 16,9 C
28.04.2012 09:46 17,3 C 61 % 1017,9 hPa 0,0 l/m 7,6 km/h (2 Bft) S-SO 157 9,7 C 17,3 C
28.04.2012 09:51 17,6 C 60 % 1017,9 hPa 0,0 l/m 6,1 km/h (2 Bft) O-NO 67 9,7 C 17,6 C
28.04.2012 09:56 17,8 C 59 % 1017,8 hPa 0,0 l/m 10,8 km/h (2 Bft) O-NO 67 9,7 C 17,8 C
28.04.2012 10:01 17,9 C 59 % 1017,8 hPa 0,0 l/m 6,5 km/h (2 Bft) O 90 9,8 C 17,9 C
28.04.2012 10:06 18,3 C 59 % 1017,7 hPa 0,0 l/m 9,7 km/h (2 Bft) O-NO 67 10,1 C 18,3 C
28.04.2012 10:11 18,5 C 58 % 1017,9 hPa 0,0 l/m 5,0 km/h (1 Bft) O 90 10,1 C 18,5 C
28.04.2012 10:16 18,9 C 58 % 1017,7 hPa 0,0 l/m 4,0 km/h (1 Bft) NO 45 10,5 C 18,9 C
28.04.2012 10:21 19,3 C 57 % 1017,6 hPa 0,0 l/m 6,5 km/h (2 Bft) NO 45 10,6 C 19,3 C
28.04.2012 10:26 19,4 C 56 % 1017,8 hPa 0,0 l/m 6,5 km/h (2 Bft) O-NO 67 10,4 C 19,4 C
28.04.2012 10:31 19,6 C 56 % 1017,5 hPa 0,0 l/m 6,8 km/h (2 Bft) O 90 10,6 C 19,6 C
28.04.2012 10:36 19,8 C 56 % 1017,4 hPa 0,0 l/m 9,4 km/h (2 Bft) O 90 10,8 C 19,8 C
28.04.2012 10:41 19,9 C 55 % 1017,5 hPa 0,0 l/m 8,6 km/h (2 Bft) O 90 10,6 C 19,9 C
28.04.2012 10:46 19,9 C 55 % 1017,3 hPa 0,0 l/m 11,5 km/h (2 Bft) O 90 10,6 C 19,9 C
28.04.2012 10:51 19,9 C 55 % 1017,5 hPa 0,0 l/m 11,5 km/h (2 Bft) O 90 10,6 C 19,9 C
28.04.2012 10:56 20,2 C 54 % 1017,4 hPa 0,0 l/m 10,1 km/h (2 Bft) O-NO 67 10,6 C 20,2 C
28.04.2012 11:01 20,3 C 55 % 1017,6 hPa 0,0 l/m 7,9 km/h (2 Bft) O-SO 112 11,0 C 20,3 C
28.04.2012 11:06 20,5 C 54 % 1017,4 hPa 0,0 l/m 4,7 km/h (1 Bft) O 90 10,9 C 20,5 C
28.04.2012 11:11 20,7 C 54 % 1017,1 hPa 0,0 l/m 15,1 km/h (3 Bft) O-NO 67 11,1 C 20,7 C
28.04.2012 11:16 20,7 C 54 % 1017,3 hPa 0,0 l/m 8,6 km/h (2 Bft) O 90 11,1 C 20,7 C
28.04.2012 11:21 20,5 C 54 % 1017,2 hPa 0,0 l/m 10,8 km/h (2 Bft) O-SO 112 10,9 C 20,5 C
28.04.2012 11:26 20,4 C 54 % 1017,1 hPa 0,0 l/m 12,2 km/h (2 Bft) O-NO 67 10,8 C 20,4 C
28.04.2012 11:31 20,3 C 54 % 1017,2 hPa 0,0 l/m 6,5 km/h (2 Bft) SO 135 10,7 C 20,3 C
28.04.2012 11:36 20,3 C 54 % 1016,9 hPa 0,0 l/m 7,6 km/h (2 Bft) O 90 10,7 C 20,3 C
28.04.2012 11:41 20,3 C 54 % 1016,8 hPa 0,0 l/m 5,8 km/h (2 Bft) O-SO 112 10,7 C 20,3 C
28.04.2012 11:46 20,4 C 54 % 1016,6 hPa 0,0 l/m 10,4 km/h (2 Bft) O-SO 112 10,8 C 20,4 C
28.04.2012 11:51 20,6 C 54 % 1016,8 hPa 0,0 l/m 9,0 km/h (2 Bft) O-SO 112 11,0 C 20,6 C
28.04.2012 11:56 20,8 C 54 % 1016,5 hPa 0,0 l/m 9,0 km/h (2 Bft) O 90 11,1 C 20,8 C
28.04.2012 12:01 20,9 C 54 % 1016,5 hPa 0,0 l/m 15,1 km/h (3 Bft) O-NO 67 11,2 C 20,9 C
28.04.2012 12:06 21,2 C 54 % 1016,4 hPa 0,0 l/m 6,8 km/h (2 Bft) O-NO 67 11,5 C 21,2 C
28.04.2012 12:11 21,4 C 55 % 1016,3 hPa 0,0 l/m 10,1 km/h (2 Bft) O-SO 112 12,0 C 21,4 C
28.04.2012 12:16 21,8 C 54 % 1016,1 hPa 0,0 l/m 8,3 km/h (2 Bft) O-SO 112 12,1 C 21,8 C
28.04.2012 12:21 21,9 C 52 % 1016,2 hPa 0,0 l/m 5,4 km/h (1 Bft) O-NO 67 11,6 C 21,9 C
28.04.2012 12:26 22,1 C 52 % 1016,2 hPa 0,0 l/m 11,5 km/h (2 Bft) O 90 11,8 C 22,1 C
28.04.2012 12:31 22,1 C 52 % 1016,1 hPa 0,0 l/m 9,7 km/h (2 Bft) O-SO 112 11,8 C 22,1 C
28.04.2012 12:36 22,1 C 52 % 1016,0 hPa 0,0 l/m 4,7 km/h (1 Bft) S-SO 157 11,8 C 22,1 C
28.04.2012 12:41 22,1 C 53 % 1015,9 hPa 0,0 l/m 11,2 km/h (2 Bft) O-SO 112 12,1 C 22,1 C
28.04.2012 12:46 22,5 C 52 % 1016,0 hPa 0,0 l/m 9,0 km/h (2 Bft) S-SO 157 12,1 C 22,5 C
28.04.2012 12:51 22,9 C 51 % 1015,8 hPa 0,0 l/m 11,2 km/h (2 Bft) SO 135 12,2 C 22,9 C
28.04.2012 12:56 23,3 C 50 % 1015,6 hPa 0,0 l/m 13,0 km/h (3 Bft) SO 135 12,3 C 23,3 C
28.04.2012 13:01 23,4 C 50 % 1015,4 hPa 0,0 l/m 20,9 km/h (4 Bft) NO 45 12,4 C 23,4 C
28.04.2012 13:06 23,8 C 49 % 1015,4 hPa 0,0 l/m 16,2 km/h (3 Bft) S-SO 157 12,4 C 23,8 C
28.04.2012 13:11 23,9 C 49 % 1015,3 hPa 0,0 l/m 9,4 km/h (2 Bft) SO 135 12,5 C 23,9 C
28.04.2012 13:16 24,3 C 48 % 1015,4 hPa 0,0 l/m 15,8 km/h (3 Bft) S-SO 157 12,6 C 24,3 C
28.04.2012 13:21 24,5 C 47 % 1015,3 hPa 0,0 l/m 9,7 km/h (2 Bft) SO 135 12,4 C 24,5 C
28.04.2012 13:26 24,6 C 47 % 1015,4 hPa 0,0 l/m 7,9 km/h (2 Bft) O-SO 112 12,5 C 24,6 C
28.04.2012 13:31 24,9 C 47 % 1015,3 hPa 0,0 l/m 10,1 km/h (2 Bft) SO 135 12,8 C 24,9 C
28.04.2012 13:36 24,9 C 46 % 1015,2 hPa 0,0 l/m 3,6 km/h (1 Bft) SO 135 12,5 C 24,9 C
28.04.2012 13:41 25,0 C 46 % 1015,2 hPa 0,0 l/m 7,6 km/h (2 Bft) SO 135 12,6 C 25,0 C
28.04.2012 13:46 25,3 C 46 % 1015,2 hPa 0,0 l/m 4,3 km/h (1 Bft) O-SO 112 12,8 C 25,3 C
28.04.2012 13:51 25,4 C 45 % 1015,1 hPa 0,0 l/m 10,4 km/h (2 Bft) O-SO 112 12,6 C 25,4 C
28.04.2012 13:56 25,3 C 46 % 1015,0 hPa 0,0 l/m 4,7 km/h (1 Bft) O-SO 112 12,8 C 25,3 C
28.04.2012 14:01 25,6 C 46 % 1014,9 hPa 0,0 l/m 3,6 km/h (1 Bft) S-SO 157 13,1 C 25,6 C
28.04.2012 14:06 25,9 C 44 % 1014,9 hPa 0,0 l/m 3,2 km/h (1 Bft) O-SO 112 12,7 C 25,9 C
28.04.2012 14:11 25,9 C 44 % 1014,8 hPa 0,0 l/m 12,6 km/h (3 Bft) SO 135 12,7 C 25,9 C
28.04.2012 14:16 26,0 C 44 % 1014,7 hPa 0,0 l/m 9,4 km/h (2 Bft) O 90 12,8 C 26,0 C
28.04.2012 14:21 26,2 C 44 % 1014,7 hPa 0,0 l/m 11,2 km/h (2 Bft) SO 135 13,0 C 26,2 C
28.04.2012 14:26 26,4 C 43 % 1014,7 hPa 0,0 l/m 8,6 km/h (2 Bft) SO 135 12,8 C 26,4 C
28.04.2012 14:31 26,6 C 43 % 1014,7 hPa 0,0 l/m 8,6 km/h (2 Bft) O 90 13,0 C 26,6 C
28.04.2012 14:36 26,8 C 42 % 1014,6 hPa 0,0 l/m 5,8 km/h (2 Bft) N-NO 22 12,8 C 26,8 C
28.04.2012 14:41 27,1 C 40 % 1014,6 hPa 0,0 l/m 8,3 km/h (2 Bft) O-SO 112 12,3 C 27,1 C
28.04.2012 14:46 27,4 C 40 % 1014,6 hPa 0,0 l/m 10,1 km/h (2 Bft) S-SO 157 12,6 C 27,4 C
28.04.2012 14:51 27,4 C 39 % 1014,5 hPa 0,0 l/m 10,1 km/h (2 Bft) S-SO 157 12,2 C 27,4 C
28.04.2012 14:56 27,4 C 40 % 1014,6 hPa 0,0 l/m 11,9 km/h (2 Bft) S-SO 157 12,6 C 27,4 C
28.04.2012 15:01 27,6 C 40 % 1014,5 hPa 0,0 l/m 13,0 km/h (3 Bft) O-SO 112 12,8 C 27,6 C
28.04.2012 15:06 27,8 C 38 % 1014,5 hPa 0,0 l/m 5,8 km/h (2 Bft) S-SO 157 12,2 C 27,8 C
28.04.2012 15:11 27,9 C 38 % 1014,4 hPa 0,0 l/m 10,1 km/h (2 Bft) S-SO 157 12,2 C 27,9 C
28.04.2012 15:16 28,2 C 39 % 1014,3 hPa 0,0 l/m 4,0 km/h (1 Bft) SO 135 12,9 C 28,2 C
28.04.2012 15:21 28,5 C 38 % 1014,5 hPa 0,0 l/m 6,1 km/h (2 Bft) SW 225 12,8 C 28,5 C
28.04.2012 15:26 28,8 C 38 % 1014,3 hPa 0,0 l/m 0,0 km/h (0 Bft) SO 135 13,0 C 28,8 C
28.04.2012 15:31 28,9 C 38 % 1014,2 hPa 0,0 l/m 4,0 km/h (1 Bft) SW 225 13,1 C 28,9 C
28.04.2012 15:36 28,9 C 38 % 1014,3 hPa 0,0 l/m 9,0 km/h (2 Bft) S 180 13,1 C 28,9 C
28.04.2012 15:41 28,9 C 38 % 1014,0 hPa 0,0 l/m 7,9 km/h (2 Bft) W 270 13,1 C 28,9 C
28.04.2012 15:46 28,9 C 37 % 1014,2 hPa 0,0 l/m 4,0 km/h (1 Bft) S 180 12,7 C 28,9 C
28.04.2012 15:51 28,9 C 37 % 1014,1 hPa 0,0 l/m 12,2 km/h (2 Bft) S-SW 202 12,7 C 28,9 C
28.04.2012 15:56 28,9 C 37 % 1014,0 hPa 0,0 l/m 7,2 km/h (2 Bft) W 270 12,7 C 28,9 C
28.04.2012 16:01 28,9 C 37 % 1014,1 hPa 0,0 l/m 7,2 km/h (2 Bft) W-SW 247 12,7 C 28,9 C
28.04.2012 16:06 29,1 C 37 % 1014,0 hPa 0,0 l/m 6,8 km/h (2 Bft) W-SW 247 12,9 C 29,1 C
28.04.2012 16:11 29,2 C 37 % 1014,2 hPa 0,0 l/m 4,7 km/h (1 Bft) S 180 13,0 C 29,2 C
28.04.2012 16:16 29,2 C 37 % 1014,0 hPa 0,0 l/m 21,6 km/h (4 Bft) S-SW 202 13,0 C 29,2 C
28.04.2012 16:21 29,3 C 37 % 1014,1 hPa 0,0 l/m 12,6 km/h (3 Bft) S-SW 202 13,1 C 29,3 C
28.04.2012 16:26 29,3 C 36 % 1014,1 hPa 0,0 l/m 6,1 km/h (2 Bft) S-SW 202 12,7 C 29,3 C
28.04.2012 16:31 29,3 C 36 % 1013,9 hPa 0,0 l/m 5,4 km/h (1 Bft) SW 225 12,7 C 29,3 C
28.04.2012 16:36 29,4 C 36 % 1014,1 hPa 0,0 l/m 6,1 km/h (2 Bft) S-SW 202 12,7 C 29,4 C
28.04.2012 16:41 29,5 C 37 % 1013,9 hPa 0,0 l/m 7,2 km/h (2 Bft) S-SW 202 13,3 C 29,5 C
28.04.2012 16:46 29,7 C 36 % 1013,8 hPa 0,0 l/m 4,0 km/h (1 Bft) SW 225 13,0 C 29,7 C
28.04.2012 16:51 29,8 C 35 % 1013,7 hPa 0,0 l/m 4,0 km/h (1 Bft) W-SW 247 12,7 C 29,8 C
28.04.2012 16:56 29,8 C 36 % 1013,8 hPa 0,0 l/m 3,6 km/h (1 Bft) SW 225 13,1 C 29,8 C
28.04.2012 17:01 29,8 C 36 % 1013,8 hPa 0,0 l/m 14,0 km/h (3 Bft) W 270 13,1 C 29,8 C
28.04.2012 17:06 29,8 C 36 % 1013,8 hPa 0,0 l/m 3,2 km/h (1 Bft) SW 225 13,1 C 29,8 C
28.04.2012 17:11 29,8 C 36 % 1013,9 hPa 0,0 l/m 9,0 km/h (2 Bft) W-NW 292 13,1 C 29,8 C
28.04.2012 17:16 29,8 C 37 % 1014,0 hPa 0,0 l/m 7,2 km/h (2 Bft) W-NW 292 13,5 C 29,8 C
28.04.2012 17:21 29,8 C 38 % 1013,9 hPa 0,0 l/m 2,2 km/h (1 Bft) W 270 13,9 C 29,8 C
28.04.2012 17:26 29,6 C 38 % 1013,9 hPa 0,0 l/m 5,8 km/h (2 Bft) W-NW 292 13,8 C 29,6 C
28.04.2012 17:31 29,5 C 38 % 1013,8 hPa 0,0 l/m 3,2 km/h (1 Bft) W 270 13,7 C 29,5 C
28.04.2012 17:36 29,5 C 39 % 1013,8 hPa 0,0 l/m 4,0 km/h (1 Bft) NW 315 14,1 C 29,5 C
28.04.2012 17:41 29,6 C 38 % 1013,9 hPa 0,0 l/m 3,6 km/h (1 Bft) W 270 13,8 C 29,6 C
28.04.2012 17:46 29,6 C 38 % 1013,7 hPa 0,0 l/m 6,8 km/h (2 Bft) W 270 13,8 C 29,6 C
28.04.2012 17:51 29,6 C 38 % 1013,8 hPa 0,0 l/m 4,7 km/h (1 Bft) N-NW 337 13,8 C 29,6 C
28.04.2012 17:56 29,3 C 39 % 1013,6 hPa 0,0 l/m 2,5 km/h (1 Bft) N-NO 22 13,9 C 29,3 C
28.04.2012 18:01 29,0 C 39 % 1013,5 hPa 0,0 l/m 0,0 km/h (0 Bft) N-NW 337 13,6 C 29,0 C
28.04.2012 18:06 28,9 C 40 % 1013,5 hPa 0,0 l/m 2,2 km/h (1 Bft) N 360 13,9 C 28,9 C
28.04.2012 18:11 28,8 C 39 % 1013,4 hPa 0,0 l/m 1,4 km/h (1 Bft) N 360 13,4 C 28,8 C
28.04.2012 18:16 28,8 C 39 % 1013,5 hPa 0,0 l/m 1,4 km/h (1 Bft) N 360 13,4 C 28,8 C
28.04.2012 18:21 28,5 C 38 % 1013,3 hPa 0,0 l/m 1,4 km/h (1 Bft) N-NO 22 12,8 C 28,5 C
28.04.2012 18:26 28,3 C 38 % 1013,3 hPa 0,0 l/m 2,5 km/h (1 Bft) N-NO 22 12,6 C 28,3 C
28.04.2012 18:31 28,1 C 38 % 1013,4 hPa 0,0 l/m 2,5 km/h (1 Bft) N-NO 22 12,4 C 28,1 C
28.04.2012 18:36 27,9 C 38 % 1013,3 hPa 0,0 l/m 3,6 km/h (1 Bft) N 360 12,2 C 27,9 C
28.04.2012 18:41 27,8 C 38 % 1013,3 hPa 0,0 l/m 3,2 km/h (1 Bft) NO 45 12,2 C 27,8 C
28.04.2012 18:46 27,6 C 38 % 1013,1 hPa 0,0 l/m 2,2 km/h (1 Bft) N-NO 22 12,0 C 27,6 C
28.04.2012 18:51 27,5 C 38 % 1013,2 hPa 0,0 l/m 0,0 km/h (0 Bft) N-NW 337 11,9 C 27,5 C
28.04.2012 18:56 27,4 C 38 % 1013,2 hPa 0,0 l/m 2,2 km/h (1 Bft) N 360 11,8 C 27,4 C
28.04.2012 19:01 27,2 C 37 % 1013,2 hPa 0,0 l/m 4,3 km/h (1 Bft) N 360 11,2 C 27,2 C
28.04.2012 19:06 26,9 C 37 % 1013,4 hPa 0,0 l/m 5,0 km/h (1 Bft) NO 45 11,0 C 26,9 C
28.04.2012 19:11 26,8 C 37 % 1013,0 hPa 0,0 l/m 6,5 km/h (2 Bft) N-NO 22 10,9 C 26,8 C
28.04.2012 19:16 26,6 C 38 % 1013,1 hPa 0,0 l/m 4,7 km/h (1 Bft) N-NO 22 11,1 C 26,6 C
28.04.2012 19:21 26,4 C 38 % 1013,3 hPa 0,0 l/m 6,1 km/h (2 Bft) N-NO 22 10,9 C 26,4 C
28.04.2012 19:26 26,4 C 38 % 1013,2 hPa 0,0 l/m 7,2 km/h (2 Bft) N-NO 22 10,9 C 26,4 C
28.04.2012 19:31 26,4 C 39 % 1013,2 hPa 0,0 l/m 5,8 km/h (2 Bft) NO 45 11,3 C 26,4 C
28.04.2012 19:36 26,3 C 39 % 1013,2 hPa 0,0 l/m 5,8 km/h (2 Bft) NO 45 11,2 C 26,3 C
28.04.2012 19:41 26,1 C 39 % 1013,3 hPa 0,0 l/m 4,3 km/h (1 Bft) N 360 11,0 C 26,1 C
28.04.2012 19:46 25,9 C 40 % 1013,0 hPa 0,0 l/m 6,1 km/h (2 Bft) N-NO 22 11,3 C 25,9 C
28.04.2012 19:51 25,8 C 40 % 1013,3 hPa 0,0 l/m 5,8 km/h (2 Bft) NO 45 11,2 C 25,8 C
28.04.2012 19:56 25,6 C 40 % 1013,2 hPa 0,0 l/m 5,0 km/h (1 Bft) N-NO 22 11,0 C 25,6 C
28.04.2012 20:01 25,5 C 40 % 1013,2 hPa 0,0 l/m 7,2 km/h (2 Bft) N-NO 22 10,9 C 25,5 C
28.04.2012 20:06 25,3 C 40 % 1013,1 hPa 0,0 l/m 5,0 km/h (1 Bft) N-NO 22 10,7 C 25,3 C
28.04.2012 20:11 25,2 C 40 % 1013,1 hPa 0,0 l/m 0,0 km/h (0 Bft) N-NO 22 10,6 C 25,2 C
28.04.2012 20:16 24,9 C 41 % 1013,3 hPa 0,0 l/m 0,0 km/h (0 Bft) O-NO 67 10,7 C 24,9 C
28.04.2012 20:21 24,8 C 41 % 1013,3 hPa 0,0 l/m 3,6 km/h (1 Bft) N-NO 22 10,6 C 24,8 C
28.04.2012 20:26 24,7 C 41 % 1013,1 hPa 0,0 l/m 4,7 km/h (1 Bft) N 360 10,6 C 24,7 C
28.04.2012 20:31 24,5 C 41 % 1013,2 hPa 0,0 l/m 4,3 km/h (1 Bft) NO 45 10,4 C 24,5 C
28.04.2012 20:36 24,3 C 42 % 1013,2 hPa 0,0 l/m 3,6 km/h (1 Bft) N-NO 22 10,6 C 24,3 C
28.04.2012 20:41 24,1 C 42 % 1013,3 hPa 0,0 l/m 4,7 km/h (1 Bft) NO 45 10,4 C 24,1 C
28.04.2012 20:46 23,9 C 43 % 1013,3 hPa 0,0 l/m 8,3 km/h (2 Bft) NO 45 10,5 C 23,9 C
28.04.2012 20:51 23,8 C 43 % 1013,3 hPa 0,0 l/m 5,8 km/h (2 Bft) O-NO 67 10,5 C 23,8 C
28.04.2012 20:56 23,7 C 44 % 1013,4 hPa 0,0 l/m 11,5 km/h (2 Bft) NO 45 10,7 C 23,7 C
28.04.2012 21:01 23,6 C 44 % 1013,4 hPa 0,0 l/m 5,0 km/h (1 Bft) O-NO 67 10,6 C 23,6 C
28.04.2012 21:06 23,5 C 44 % 1013,5 hPa 0,0 l/m 5,4 km/h (1 Bft) O-SO 112 10,5 C 23,5 C
28.04.2012 21:11 23,4 C 45 % 1013,4 hPa 0,0 l/m 7,6 km/h (2 Bft) NO 45 10,8 C 23,4 C
28.04.2012 21:16 23,4 C 46 % 1013,3 hPa 0,0 l/m 2,9 km/h (1 Bft) O-SO 112 11,1 C 23,4 C
28.04.2012 21:21 23,3 C 46 % 1013,2 hPa 0,0 l/m 9,0 km/h (2 Bft) O 90 11,0 C 23,3 C
28.04.2012 21:26 23,1 C 48 % 1013,2 hPa 0,0 l/m 7,9 km/h (2 Bft) NO 45 11,5 C 23,1 C
28.04.2012 21:31 22,9 C 49 % 1013,2 hPa 0,0 l/m 6,1 km/h (2 Bft) O-NO 67 11,6 C 22,9 C
28.04.2012 21:36 22,8 C 50 % 1013,2 hPa 0,0 l/m 2,2 km/h (1 Bft) O-NO 67 11,8 C 22,8 C
28.04.2012 21:41 22,6 C 51 % 1013,2 hPa 0,0 l/m 6,1 km/h (2 Bft) O 90 11,9 C 22,6 C
28.04.2012 21:46 22,4 C 52 % 1013,3 hPa 0,0 l/m 11,2 km/h (2 Bft) O-NO 67 12,1 C 22,4 C
28.04.2012 21:51 22,3 C 54 % 1013,3 hPa 0,0 l/m 14,0 km/h (3 Bft) O 90 12,5 C 22,3 C
28.04.2012 21:56 22,1 C 55 % 1013,3 hPa 0,0 l/m 7,9 km/h (2 Bft) O 90 12,6 C 22,1 C
28.04.2012 22:01 21,9 C 57 % 1013,3 hPa 0,0 l/m 5,0 km/h (1 Bft) O 90 13,0 C 21,9 C
28.04.2012 22:06 21,7 C 58 % 1013,2 hPa 0,0 l/m 9,0 km/h (2 Bft) O-NO 67 13,1 C 21,7 C
28.04.2012 22:11 21,5 C 58 % 1013,2 hPa 0,0 l/m 7,9 km/h (2 Bft) O 90 12,9 C 21,5 C
28.04.2012 22:16 21,4 C 59 % 1013,3 hPa 0,0 l/m 11,2 km/h (2 Bft) O 90 13,0 C 21,4 C
28.04.2012 22:21 21,2 C 59 % 1013,2 hPa 0,0 l/m 7,6 km/h (2 Bft) N-NO 22 12,9 C 21,2 C
28.04.2012 22:26 21,0 C 59 % 1013,2 hPa 0,0 l/m 2,5 km/h (1 Bft) NO 45 12,7 C 21,0 C
28.04.2012 22:31 20,8 C 60 % 1012,9 hPa 0,0 l/m 3,6 km/h (1 Bft) O-NO 67 12,7 C 20,8 C
28.04.2012 22:36 20,6 C 60 % 1012,7 hPa 0,0 l/m 4,7 km/h (1 Bft) NO 45 12,6 C 20,6 C
28.04.2012 22:41 20,4 C 61 % 1012,8 hPa 0,0 l/m 7,9 km/h (2 Bft) N-NO 22 12,6 C 20,4 C
28.04.2012 22:46 20,3 C 61 % 1012,8 hPa 0,0 l/m 5,0 km/h (1 Bft) O 90 12,5 C 20,3 C
28.04.2012 22:51 20,1 C 61 % 1012,9 hPa 0,0 l/m 7,6 km/h (2 Bft) O-NO 67 12,3 C 20,1 C
28.04.2012 22:56 19,9 C 62 % 1012,8 hPa 0,0 l/m 7,6 km/h (2 Bft) NO 45 12,4 C 19,9 C
28.04.2012 23:01 19,8 C 63 % 1012,8 hPa 0,0 l/m 4,0 km/h (1 Bft) SO 135 12,5 C 19,8 C
28.04.2012 23:06 19,5 C 63 % 1012,8 hPa 0,0 l/m 8,3 km/h (2 Bft) NO 45 12,3 C 19,5 C
28.04.2012 23:11 19,3 C 63 % 1012,8 hPa 0,0 l/m 2,9 km/h (1 Bft) N-NO 22 12,1 C 19,3 C
28.04.2012 23:16 19,2 C 64 % 1012,9 hPa 0,0 l/m 4,0 km/h (1 Bft) O-NO 67 12,2 C 19,2 C
28.04.2012 23:21 19,1 C 64 % 1012,9 hPa 0,0 l/m 2,5 km/h (1 Bft) O 90 12,1 C 19,1 C
28.04.2012 23:26 18,9 C 64 % 1013,0 hPa 0,0 l/m 2,5 km/h (1 Bft) SO 135 11,9 C 18,9 C
28.04.2012 23:31 18,9 C 65 % 1013,0 hPa 0,0 l/m 2,9 km/h (1 Bft) O 90 12,2 C 18,9 C
28.04.2012 23:36 18,7 C 66 % 1012,9 hPa 0,0 l/m 5,4 km/h (1 Bft) O-NO 67 12,2 C 18,7 C
28.04.2012 23:41 18,5 C 66 % 1013,0 hPa 0,0 l/m 2,5 km/h (1 Bft) SO 135 12,0 C 18,5 C
28.04.2012 23:46 18,4 C 66 % 1012,9 hPa 0,0 l/m 6,1 km/h (2 Bft) O 90 11,9 C 18,4 C
28.04.2012 23:51 18,2 C 67 % 1012,8 hPa 0,0 l/m 6,5 km/h (2 Bft) O-NO 67 12,0 C 18,2 C
28.04.2012 23:56 18,0 C 67 % 1012,8 hPa 0,0 l/m 3,2 km/h (1 Bft) O-NO 67 11,8 C 18,0 C
_ Min-Zeit 03:51 16:51 22:36 - 00:01 - - 00:26 03:51
Minimum _ 12,9 C 35 % 1012,7 hPa - 0,0 km/h (0 Bft) - - 7,6 C 12,9 C
_ Max-Zeit 16:51 03:46 00:36 00:01 16:16 - - 17:36 16:51
Maximum _ 29,8 C 74 % 1020,4 hPa 0,0 l/m 21,6 km/h
S-SW (4 Bft)
- - 14,1 C 29,8 C
Durchschnitt _ 20,1 C 56 % 1016,4 hPa #0,0 l/m 5,7 km/h (1 Bft) O - 10,5 C 20,1 C
(c) by David Heller